createdAt,value
2019-03-09T00:00:54.642Z,12.61
2019-03-09T00:05:59.473Z,13.39
2019-03-09T00:11:04.441Z,13.73
2019-03-09T00:16:09.751Z,14.43
2019-03-09T00:21:14.872Z,14.69
2019-03-09T00:26:24.208Z,14.58
2019-03-09T00:31:49.735Z,14.66
2019-03-09T00:36:55.604Z,14.42
2019-03-09T00:42:00.350Z,14.16
2019-03-09T00:47:06.225Z,14.51
2019-03-09T00:52:10.852Z,14.04
2019-03-09T00:57:15.600Z,13.89
2019-03-09T01:02:20.359Z,13.82
2019-03-09T01:07:25.278Z,12.91
2019-03-09T01:12:31.070Z,13.89
2019-03-09T01:17:35.807Z,13.97
2019-03-09T01:22:40.921Z,13.92
2019-03-09T01:27:45.700Z,13.50
2019-03-09T01:32:50.439Z,13.16
2019-03-09T01:37:55.080Z,13.23
2019-03-09T01:42:59.824Z,13.05
2019-03-09T01:48:04.492Z,13.17
2019-03-09T01:53:09.232Z,12.98
2019-03-09T01:58:13.951Z,13.34
2019-03-09T02:03:18.606Z,13.16
2019-03-09T02:08:23.334Z,13.30
2019-03-09T02:13:27.992Z,12.62
2019-03-09T02:18:32.722Z,12.76
2019-03-09T02:23:37.361Z,12.89
2019-03-09T02:28:42.108Z,12.81
2019-03-09T02:33:46.952Z,12.97
2019-03-09T02:38:55.892Z,13.00
2019-03-09T02:44:01.663Z,13.36
2019-03-09T02:49:06.407Z,13.50
2019-03-09T02:54:11.147Z,13.48
2019-03-09T02:59:15.889Z,13.44
2019-03-09T03:04:20.657Z,13.58
2019-03-09T03:09:26.302Z,13.18
2019-03-09T03:14:32.903Z,13.20
2019-03-09T03:19:37.228Z,12.97
2019-03-09T03:24:41.921Z,13.10
2019-03-09T03:29:46.705Z,12.72
2019-03-09T03:34:51.450Z,12.64
2019-03-09T03:39:56.087Z,12.45
2019-03-09T03:45:00.934Z,12.69
2019-03-09T03:50:06.371Z,12.52
2019-03-09T03:55:11.246Z,12.10
2019-03-09T04:00:16.409Z,12.06
2019-03-09T04:05:21.160Z,12.54
2019-03-09T04:10:26.366Z,12.58
2019-03-09T04:15:31.083Z,12.53
2019-03-09T04:20:35.784Z,11.86
2019-03-09T04:25:40.416Z,12.19
2019-03-09T04:30:45.264Z,12.75
2019-03-09T04:35:49.830Z,13.11
2019-03-09T04:40:55.767Z,13.13
2019-03-09T04:46:01.305Z,13.43
2019-03-09T04:51:06.081Z,13.83
2019-03-09T04:56:10.819Z,14.14
2019-03-09T05:01:15.567Z,14.68
2019-03-09T05:06:20.413Z,14.42
2019-03-09T05:11:25.152Z,14.49
2019-03-09T05:16:29.808Z,14.00
2019-03-09T05:21:34.636Z,14.29
2019-03-09T05:26:39.228Z,13.57
2019-03-09T05:31:43.929Z,13.52
2019-03-09T05:36:48.632Z,14.18
2019-03-09T05:41:53.635Z,14.24
2019-03-09T05:46:58.452Z,14.46
2019-03-09T05:52:24.502Z,15.03
2019-03-09T05:57:30.681Z,14.90
2019-03-09T06:02:35.527Z,14.43
2019-03-09T06:07:40.265Z,14.61
2019-03-09T06:12:45.008Z,15.00
2019-03-09T06:17:49.753Z,15.21
2019-03-09T06:22:54.489Z,15.62
2019-03-09T06:27:59.337Z,15.37
2019-03-09T06:33:18.140Z,15.94
2019-03-09T06:38:40.878Z,15.36
2019-03-09T06:43:45.644Z,15.28
2019-03-09T06:48:50.777Z,15.23
2019-03-09T06:53:55.834Z,15.30
2019-03-09T06:59:00.631Z,15.38
2019-03-09T07:04:06.384Z,15.81
2019-03-09T07:09:11.620Z,15.87
2019-03-09T07:14:54.736Z,15.91
2019-03-09T07:19:59.335Z,15.90
2019-03-09T07:25:04.146Z,16.80
2019-03-09T07:30:14.391Z,16.75
2019-03-09T07:35:19.138Z,17.27
2019-03-09T07:40:26.380Z,17.19
2019-03-09T07:45:31.262Z,17.08
2019-03-09T07:50:37.867Z,17.03
2019-03-09T07:55:43.328Z,17.62
2019-03-09T08:00:48.669Z,18.12
2019-03-09T08:05:53.444Z,18.67
2019-03-09T08:10:58.401Z,18.44
2019-03-09T08:16:03.548Z,18.75
2019-03-09T08:21:08.588Z,18.66
2019-03-09T08:26:13.437Z,18.59
2019-03-09T08:31:18.168Z,18.95
2019-03-09T08:36:22.931Z,19.01
2019-03-09T08:41:28.650Z,19.51
2019-03-09T08:46:33.639Z,19.89
2019-03-09T08:51:39.959Z,19.95
2019-03-09T08:56:44.677Z,20.60
2019-03-09T09:01:51.283Z,20.87
2019-03-09T09:06:56.104Z,21.37
2019-03-09T09:12:02.680Z,20.93
2019-03-09T09:17:07.530Z,22.09
2019-03-09T09:22:12.337Z,22.64
2019-03-09T09:27:17.224Z,21.64
2019-03-09T09:32:22.688Z,22.71
2019-03-09T09:37:27.630Z,22.10
2019-03-09T09:42:32.573Z,22.37
2019-03-09T09:47:37.279Z,23.15
2019-03-09T09:52:42.983Z,22.97
2019-03-09T09:57:47.597Z,22.94
2019-03-09T10:02:52.387Z,23.36
2019-03-09T10:07:57.126Z,23.52
2019-03-09T10:13:01.762Z,23.27
2019-03-09T10:18:06.506Z,23.27
2019-03-09T10:23:11.347Z,22.81
2019-03-09T10:28:16.093Z,23.01
2019-03-09T10:33:20.744Z,23.37
2019-03-09T10:38:28.131Z,22.88
2019-03-09T10:43:32.778Z,23.49
2019-03-09T10:48:37.417Z,23.64
2019-03-09T10:53:42.170Z,23.87
2019-03-09T10:58:46.910Z,23.93
2019-03-09T11:03:51.750Z,23.62
2019-03-09T11:08:56.516Z,23.68
2019-03-09T11:14:01.263Z,23.78
2019-03-09T11:19:06.106Z,23.73
2019-03-09T11:24:10.856Z,23.43
2019-03-09T11:29:15.686Z,23.75
2019-03-09T11:34:20.418Z,23.86
2019-03-09T11:39:25.376Z,23.88
2019-03-09T11:44:30.142Z,23.60
2019-03-09T11:49:35.070Z,23.78
2019-03-09T11:54:41.140Z,23.70
2019-03-09T11:59:46.090Z,23.78
2019-03-09T12:04:50.830Z,23.49
2019-03-09T12:09:56.128Z,23.55
2019-03-09T12:15:01.045Z,23.70
2019-03-09T12:20:07.883Z,24.14
2019-03-09T12:25:16.328Z,23.99
2019-03-09T12:30:21.319Z,23.36
2019-03-09T12:35:26.054Z,23.38
2019-03-09T12:40:30.697Z,23.88
2019-03-09T12:45:35.543Z,23.55
2019-03-09T12:50:40.499Z,24.02
2019-03-09T12:55:46.159Z,24.26
2019-03-09T13:00:52.951Z,22.87
2019-03-09T13:05:57.688Z,22.60
2019-03-09T13:11:02.431Z,22.39
2019-03-09T13:16:07.089Z,22.12
2019-03-09T13:21:11.927Z,22.49
2019-03-09T13:26:18.205Z,22.08
2019-03-09T13:31:23.689Z,22.32
2019-03-09T13:36:28.510Z,21.87
2019-03-09T13:41:33.117Z,21.39
2019-03-09T13:46:37.789Z,21.67
2019-03-09T13:51:42.402Z,21.85
2019-03-09T13:56:47.178Z,22.01
2019-03-09T14:01:51.750Z,21.79
2019-03-09T14:06:56.562Z,21.79
2019-03-09T14:12:01.408Z,21.61
2019-03-09T14:17:06.576Z,21.83
2019-03-09T14:22:11.303Z,21.92
2019-03-09T14:27:15.944Z,21.69
2019-03-09T14:32:20.691Z,21.35
2019-03-09T14:37:25.433Z,21.30
2019-03-09T14:42:30.184Z,22.07
2019-03-09T14:47:36.159Z,21.78
2019-03-09T14:52:40.994Z,21.59
2019-03-09T14:57:46.903Z,21.91
2019-03-09T15:02:51.614Z,21.34
2019-03-09T15:07:56.660Z,21.49
2019-03-09T15:13:01.454Z,21.79
2019-03-09T15:18:06.354Z,21.70
2019-03-09T15:23:11.205Z,22.00
2019-03-09T15:28:16.406Z,21.48
2019-03-09T15:33:21.879Z,21.31
2019-03-09T15:38:30.064Z,21.93
2019-03-09T15:43:35.201Z,22.15
2019-03-09T15:48:40.206Z,22.12
2019-03-09T15:53:45.814Z,21.87
2019-03-09T15:58:50.559Z,21.61
2019-03-09T16:03:55.398Z,21.08
2019-03-09T16:09:00.199Z,21.22
2019-03-09T16:14:05.704Z,19.87
2019-03-09T16:19:10.447Z,20.40
2019-03-09T16:24:15.294Z,19.92
2019-03-09T16:29:20.036Z,20.03
2019-03-09T16:34:24.848Z,20.21
2019-03-09T16:39:29.649Z,20.19
2019-03-09T16:44:34.473Z,19.82
2019-03-09T16:49:39.218Z,19.34
2019-03-09T16:54:46.085Z,18.97
2019-03-09T16:59:50.858Z,18.76
2019-03-09T17:04:56.665Z,19.13
2019-03-09T17:10:01.478Z,19.29
2019-03-09T17:15:09.710Z,19.08
2019-03-09T17:20:16.625Z,18.31
2019-03-09T17:25:22.530Z,17.98
2019-03-09T17:30:27.509Z,17.95
2019-03-09T17:35:35.321Z,18.25
2019-03-09T17:40:39.973Z,18.28
2019-03-09T17:45:46.249Z,18.20
2019-03-09T17:50:51.097Z,17.88
2019-03-09T17:55:55.831Z,17.63
2019-03-09T18:01:00.594Z,17.55
2019-03-09T18:06:06.352Z,17.35
2019-03-09T18:11:11.672Z,17.32
2019-03-09T18:16:16.361Z,17.21
2019-03-09T18:21:21.220Z,17.28
2019-03-09T18:26:25.935Z,16.60
2019-03-09T18:31:30.676Z,15.54
2019-03-09T18:36:35.418Z,16.46
2019-03-09T18:41:40.106Z,16.77
2019-03-09T18:46:44.715Z,16.09
2019-03-09T18:51:49.550Z,15.96
2019-03-09T18:56:55.413Z,16.77
2019-03-09T19:02:00.264Z,16.82
2019-03-09T19:07:04.977Z,16.69
2019-03-09T19:12:09.681Z,16.09
2019-03-09T19:17:14.631Z,15.07
2019-03-09T19:22:19.338Z,15.23
2019-03-09T19:27:23.985Z,14.96
2019-03-09T19:32:28.720Z,14.73
2019-03-09T19:37:33.378Z,15.49
2019-03-09T19:42:38.540Z,15.55
2019-03-09T19:47:44.764Z,15.58
2019-03-09T19:52:49.453Z,15.46
2019-03-09T19:57:54.195Z,15.48
2019-03-09T20:03:01.696Z,15.77
2019-03-09T20:08:07.884Z,15.54
2019-03-09T20:13:12.867Z,15.78
2019-03-09T20:18:17.767Z,16.07
2019-03-09T20:23:22.803Z,16.08
2019-03-09T20:28:27.562Z,15.85
2019-03-09T20:33:32.908Z,14.46
2019-03-09T20:38:37.659Z,14.36
2019-03-09T20:43:42.361Z,14.56
2019-03-09T20:48:47.244Z,15.08
2019-03-09T20:53:52.246Z,15.05
2019-03-09T20:58:56.948Z,14.04
2019-03-09T21:04:01.681Z,13.52
2019-03-09T21:09:06.974Z,13.53
2019-03-09T21:14:13.317Z,13.19
2019-03-09T21:19:18.469Z,13.82
2019-03-09T21:24:23.093Z,12.48
2019-03-09T21:29:27.854Z,13.09
2019-03-09T21:34:32.912Z,13.26
2019-03-09T21:39:37.661Z,13.57
2019-03-09T21:44:42.281Z,13.73
2019-03-09T21:49:47.032Z,13.27
2019-03-09T21:54:51.881Z,11.98
2019-03-09T22:00:07.100Z,12.03
2019-03-09T22:05:14.574Z,12.27
2019-03-09T22:10:20.751Z,12.67
2019-03-09T22:15:27.536Z,12.54
2019-03-09T22:20:32.282Z,12.25
2019-03-09T22:25:37.034Z,12.01
2019-03-09T22:30:41.772Z,11.31
2019-03-09T22:35:46.925Z,11.68
2019-03-09T22:40:52.794Z,11.84
2019-03-09T22:45:57.535Z,11.97
2019-03-09T22:51:02.384Z,12.42
2019-03-09T22:56:07.431Z,11.84
2019-03-09T23:01:13.202Z,12.48
2019-03-09T23:06:19.580Z,12.12
2019-03-09T23:11:24.229Z,12.00
2019-03-09T23:16:29.479Z,12.10
2019-03-09T23:21:34.427Z,11.93
2019-03-09T23:26:39.842Z,11.74
2019-03-09T23:31:44.945Z,11.81
2019-03-09T23:36:49.583Z,12.15
2019-03-09T23:41:54.317Z,11.83
2019-03-09T23:47:00.186Z,12.55
2019-03-09T23:52:05.175Z,12.62
2019-03-09T23:57:10.088Z,12.87
